Time;durP1;ratioP1;P1;durP2;ratioP2;P2;SDS_P1;SDS_P2;PMS_P1;PMS_P2;Temp;Humidity;BMP_temperature;BMP_pressure;BME280_temperature;BME280_humidity;BME280_pressure;Samples;Min_cycle;Max_cycle;Signal;HPM_P1;HPM_P2
2022/12/20 00:00:16;;;;;;;40.58;22.52;;;1.10;99.90;;;;;;4920810;28;20048;-70
2022/12/20 00:02:42;;;;;;;37.22;21.88;;;1.10;99.90;;;;;;4920429;28;20081;-69
2022/12/20 00:05:08;;;;;;;38.28;22.02;;;1.10;99.90;;;;;;4927832;28;20043;-69
2022/12/20 00:07:33;;;;;;;38.88;22.95;;;1.10;99.90;;;;;;4911531;28;20039;-69
2022/12/20 00:09:59;;;;;;;37.35;21.52;;;1.00;99.90;;;;;;4916471;28;20093;-69
2022/12/20 00:12:25;;;;;;;37.25;21.38;;;1.10;99.90;;;;;;4924545;28;20496;-69
2022/12/20 00:14:50;;;;;;;37.78;21.63;;;1.10;99.90;;;;;;4923405;28;20112;-68
2022/12/20 00:17:16;;;;;;;37.45;21.25;;;1.20;99.90;;;;;;4919287;28;20039;-69
2022/12/20 00:19:43;;;;;;;36.55;20.63;;;1.20;99.90;;;;;;4917911;28;20071;-69
2022/12/20 00:22:09;;;;;;;39.10;20.70;;;1.20;99.90;;;;;;4915874;28;20790;-69
2022/12/20 00:24:35;;;;;;;37.65;20.90;;;1.30;99.90;;;;;;4925276;28;20051;-69
2022/12/20 00:27:00;;;;;;;36.90;21.52;;;1.20;99.90;;;;;;4921351;28;20050;-69
2022/12/20 00:29:26;;;;;;;36.92;21.83;;;1.20;99.90;;;;;;4924316;28;20039;-69
2022/12/20 00:31:51;;;;;;;36.75;20.63;;;1.20;99.90;;;;;;4924072;28;20045;-69
2022/12/20 00:34:17;;;;;;;31.27;19.17;;;1.20;99.90;;;;;;4914757;28;20043;-69
2022/12/20 00:36:43;;;;;;;37.40;21.02;;;1.20;99.90;;;;;;4915711;28;20488;-69
2022/12/20 00:39:08;;;;;;;36.65;20.73;;;1.30;99.90;;;;;;4928406;28;20153;-69
2022/12/20 00:41:34;;;;;;;39.30;21.90;;;1.20;99.90;;;;;;4927325;28;20071;-69
2022/12/20 00:44:01;;;;;;;39.65;21.80;;;1.20;99.90;;;;;;4929525;28;20058;-69
2022/12/20 00:46:27;;;;;;;39.38;21.80;;;1.20;99.90;;;;;;4925971;28;20043;-70
2022/12/20 00:48:53;;;;;;;33.92;18.92;;;1.20;99.90;;;;;;4929022;28;20134;-69
2022/12/20 00:51:22;;;;;;;43.35;22.40;;;1.20;99.90;;;;;;4931176;28;20034;-70
2022/12/20 00:53:48;;;;;;;34.90;20.08;;;1.30;99.90;;;;;;4929973;28;20063;-71
2022/12/20 00:56:14;;;;;;;39.50;19.88;;;1.30;99.90;;;;;;4931005;28;20023;-71
2022/12/20 00:58:41;;;;;;;36.67;19.63;;;1.30;99.90;;;;;;4913442;28;20060;-71
2022/12/20 01:01:33;;;;;;;38.20;21.02;;;1.30;99.90;;;;;;4925326;28;20031;-72
2022/12/20 01:03:59;;;;;;;34.40;19.08;;;1.30;99.90;;;;;;4936136;28;20048;-72
2022/12/20 01:06:25;;;;;;;36.00;19.85;;;1.30;99.90;;;;;;4910299;28;20525;-72
2022/12/20 01:08:53;;;;;;;33.80;20.13;;;1.30;99.90;;;;;;4921960;28;20059;-72
2022/12/20 01:11:24;;;;;;;37.47;20.70;;;1.30;99.90;;;;;;4922291;28;20049;-72
2022/12/20 01:13:52;;;;;;;35.85;20.40;;;1.30;99.90;;;;;;4923403;28;20062;-72
2022/12/20 01:16:21;;;;;;;38.00;21.17;;;1.30;99.90;;;;;;4917017;28;20045;-71
2022/12/20 01:18:48;;;;;;;36.42;20.33;;;1.30;99.90;;;;;;4920659;28;20630;-71
2022/12/20 01:21:15;;;;;;;37.55;21.42;;;1.30;99.90;;;;;;4916882;28;20128;-71
2022/12/20 01:23:42;;;;;;;38.90;21.02;;;1.30;99.90;;;;;;4916163;28;20130;-71
2022/12/20 01:26:11;;;;;;;40.72;21.30;;;1.30;99.90;;;;;;4912870;28;20130;-71
2022/12/20 01:28:39;;;;;;;36.33;20.88;;;1.20;99.90;;;;;;4924429;28;20408;-71
2022/12/20 01:31:11;;;;;;;39.13;20.63;;;1.20;99.90;;;;;;4922480;28;20031;-72
2022/12/20 01:33:36;;;;;;;39.35;21.65;;;1.30;99.90;;;;;;4913050;28;20056;-72
2022/12/20 01:36:05;;;;;;;36.60;20.08;;;1.40;99.90;;;;;;4927261;28;20038;-74
2022/12/20 01:38:32;;;;;;;40.45;22.80;;;1.40;99.90;;;;;;4926366;28;20038;-74
2022/12/20 01:40:58;;;;;;;37.08;21.25;;;1.30;99.90;;;;;;4928034;28;20704;-71
2022/12/20 01:43:43;;;;;;;33.70;20.98;;;1.30;99.90;;;;;;4921652;28;20039;-71
2022/12/20 01:46:08;;;;;;;39.70;21.80;;;1.40;99.90;;;;;;4928363;28;20047;-71
2022/12/20 01:48:34;;;;;;;38.17;20.52;;;1.40;99.90;;;;;;4913599;28;20039;-71
2022/12/20 01:51:01;;;;;;;39.22;20.65;;;1.40;99.90;;;;;;4919178;28;20156;-71
2022/12/20 01:53:26;;;;;;;35.70;19.48;;;1.40;99.90;;;;;;4922183;28;20039;-72
2022/12/20 01:55:53;;;;;;;40.75;20.90;;;1.30;99.90;;;;;;4925729;28;20036;-76
2022/12/20 01:58:20;;;;;;;38.33;21.63;;;1.30;99.90;;;;;;4914119;28;20054;-73
2022/12/20 02:00:46;;;;;;;41.47;22.02;;;1.20;99.90;;;;;;4929800;28;20085;-73
2022/12/20 02:03:13;;;;;;;38.60;21.33;;;1.10;99.90;;;;;;4927284;28;20142;-74
2022/12/20 02:05:46;;;;;;;39.70;22.38;;;1.10;99.90;;;;;;4916217;28;20039;-72
2022/12/20 02:08:16;;;;;;;38.40;21.45;;;1.00;99.90;;;;;;4929107;28;20043;-72
2022/12/20 02:11:20;;;;;;;37.90;21.15;;;1.00;99.90;;;;;;4919487;28;20031;-72
2022/12/20 02:13:57;;;;;;;34.83;20.88;;;1.20;99.90;;;;;;4919119;28;20058;-73
2022/12/20 02:16:27;;;;;;;42.95;21.30;;;1.20;99.90;;;;;;4915032;28;20036;-72
2022/12/20 02:19:03;;;;;;;42.70;24.13;;;1.20;99.90;;;;;;4923652;28;20067;-69
2022/12/20 02:21:46;;;;;;;46.03;24.83;;;1.20;99.90;;;;;;4920487;28;20106;-70
2022/12/20 02:24:30;;;;;;;38.78;20.73;;;1.20;99.90;;;;;;4916288;28;20038;-72
2022/12/20 02:26:59;;;;;;;41.05;22.90;;;1.40;99.90;;;;;;4920150;28;20598;-72
2022/12/20 02:29:36;;;;;;;40.40;21.85;;;1.50;99.90;;;;;;4923207;28;20067;-72
2022/12/20 02:32:13;;;;;;;33.92;21.00;;;1.50;99.90;;;;;;4914128;28;20326;-72
2022/12/20 02:34:40;;;;;;;39.92;20.70;;;1.50;99.90;;;;;;4914681;28;20149;-72
2022/12/20 02:37:06;;;;;;;36.33;21.00;;;1.50;99.90;;;;;;4919802;28;20070;-72
2022/12/20 02:39:34;;;;;;;36.90;20.30;;;1.50;99.90;;;;;;4912683;28;20035;-72
2022/12/20 02:42:07;;;;;;;38.88;22.45;;;1.50;99.90;;;;;;4904017;28;20746;-72
2022/12/20 02:47:51;;;;;;;38.45;21.23;;;1.50;99.90;;;;;;4919444;28;20058;-72
2022/12/20 02:50:22;;;;;;;38.80;21.88;;;1.40;99.90;;;;;;4906358;28;20044;-72
2022/12/20 02:52:49;;;;;;;38.53;22.27;;;1.40;99.90;;;;;;4908814;28;20146;-71
2022/12/20 02:55:15;;;;;;;37.55;21.50;;;1.50;99.90;;;;;;4904981;28;20530;-72
2022/12/20 02:58:03;;;;;;;42.22;22.13;;;1.40;99.90;;;;;;4915831;28;20040;-72
2022/12/20 03:00:36;;;;;;;40.88;23.27;;;1.40;99.90;;;;;;4912472;28;20158;-72
2022/12/20 03:03:22;;;;;;;36.25;21.67;;;1.40;99.90;;;;;;4916105;28;20063;-71
2022/12/20 03:05:49;;;;;;;38.63;21.48;;;1.40;99.90;;;;;;4916775;28;20040;-71
2022/12/20 03:08:15;;;;;;;39.13;21.50;;;1.40;99.90;;;;;;4921468;28;20032;-71
2022/12/20 03:10:41;;;;;;;40.13;20.40;;;1.40;99.90;;;;;;4908009;28;21108;-70
2022/12/20 03:13:07;;;;;;;41.67;22.52;;;1.40;99.90;;;;;;4918638;28;20047;-71
2022/12/20 03:15:33;;;;;;;40.70;21.42;;;1.50;99.90;;;;;;4917196;28;20036;-70
2022/12/20 03:17:58;;;;;;;38.33;21.45;;;1.40;99.90;;;;;;4917773;28;20043;-72
2022/12/20 03:20:24;;;;;;;36.50;21.17;;;1.40;99.90;;;;;;4912090;28;20049;-71
2022/12/20 03:22:50;;;;;;;39.65;21.23;;;1.40;99.90;;;;;;4920422;28;20044;-71
2022/12/20 03:25:16;;;;;;;37.58;21.80;;;1.40;99.90;;;;;;4923432;28;20083;-72
2022/12/20 03:27:41;;;;;;;42.22;21.83;;;1.40;99.90;;;;;;4925561;28;20143;-71
2022/12/20 03:30:07;;;;;;;39.30;21.67;;;1.50;99.90;;;;;;4925431;28;20047;-72
2022/12/20 03:32:33;;;;;;;38.80;22.33;;;1.50;99.90;;;;;;4928622;28;20032;-71
2022/12/20 03:34:59;;;;;;;38.53;22.55;;;1.50;99.90;;;;;;4925282;28;20114;-72
2022/12/20 03:37:25;;;;;;;41.38;22.42;;;1.60;99.90;;;;;;4929644;28;20074;-72
2022/12/20 03:39:50;;;;;;;39.00;21.50;;;1.50;99.90;;;;;;4924365;28;20769;-72
2022/12/20 03:42:16;;;;;;;38.50;21.67;;;1.50;99.90;;;;;;4921162;28;20046;-72
2022/12/20 03:44:41;;;;;;;41.35;22.35;;;1.50;99.90;;;;;;4927823;28;20459;-72
2022/12/20 03:47:07;;;;;;;40.55;21.92;;;1.50;99.90;;;;;;4926792;28;20079;-72
2022/12/20 03:49:33;;;;;;;40.42;21.70;;;1.50;99.90;;;;;;4912195;28;20405;-72
2022/12/20 03:51:58;;;;;;;34.08;19.20;;;1.50;99.90;;;;;;4915361;28;20067;-72
2022/12/20 03:54:24;;;;;;;36.38;19.67;;;1.40;99.90;;;;;;4916800;28;20053;-72
2022/12/20 03:56:50;;;;;;;35.45;21.20;;;1.40;99.90;;;;;;4921433;28;20036;-71
2022/12/20 03:59:15;;;;;;;37.30;19.65;;;1.40;99.90;;;;;;4918993;28;20042;-72
2022/12/20 04:01:41;;;;;;;33.47;17.88;;;1.30;99.90;;;;;;4922573;28;20444;-72
2022/12/20 04:04:08;;;;;;;32.65;19.60;;;1.20;99.90;;;;;;4928117;28;20054;-72
2022/12/20 04:06:34;;;;;;;34.45;19.17;;;1.30;99.90;;;;;;4923901;28;20058;-72
2022/12/20 04:09:00;;;;;;;32.97;18.55;;;1.30;99.90;;;;;;4925048;28;20471;-72
2022/12/20 04:11:25;;;;;;;36.72;19.45;;;1.30;99.90;;;;;;4926182;28;20035;-71
2022/12/20 04:13:52;;;;;;;25.63;15.50;;;1.40;99.90;;;;;;4924232;28;20125;-72
2022/12/20 04:16:26;;;;;;;25.08;14.32;;;1.50;99.90;;;;;;4925675;28;20042;-71
2022/12/20 04:18:52;;;;;;;25.40;14.60;;;1.60;99.90;;;;;;4924957;28;20554;-72
2022/12/20 04:21:30;;;;;;;21.55;13.48;;;1.60;99.90;;;;;;4916646;28;20079;-71
2022/12/20 04:23:58;;;;;;;25.17;14.35;;;1.60;99.90;;;;;;4906896;29;20523;-72
2022/12/20 04:26:24;;;;;;;23.90;13.90;;;1.70;99.90;;;;;;4918199;28;20070;-71
2022/12/20 04:28:49;;;;;;;25.55;16.23;;;1.80;99.90;;;;;;4918504;28;20055;-71
2022/12/20 04:31:15;;;;;;;23.95;14.02;;;1.80;99.90;;;;;;4923232;28;20399;-72
2022/12/20 04:33:41;;;;;;;22.73;14.57;;;1.80;99.90;;;;;;4916092;28;20796;-71
2022/12/20 04:36:06;;;;;;;26.33;14.50;;;1.80;99.90;;;;;;4923461;28;20038;-71
2022/12/20 04:38:32;;;;;;;26.05;14.65;;;1.80;99.90;;;;;;4920632;28;20044;-71
2022/12/20 04:40:58;;;;;;;23.48;14.38;;;1.80;99.90;;;;;;4917575;28;20050;-71
2022/12/20 04:43:24;;;;;;;24.30;14.45;;;1.80;99.90;;;;;;4924820;28;20039;-71
2022/12/20 04:45:52;;;;;;;24.98;14.60;;;1.80;99.90;;;;;;4928652;28;20090;-71
2022/12/20 04:48:18;;;;;;;31.00;18.27;;;1.80;99.90;;;;;;4925377;28;20074;-71
2022/12/20 04:50:48;;;;;;;23.30;14.55;;;1.80;99.90;;;;;;4915597;28;20035;-71
2022/12/20 04:55:58;;;;;;;27.38;15.27;;;1.80;99.90;;;;;;4923999;28;20123;-71
2022/12/20 04:58:24;;;;;;;30.05;16.75;;;1.80;99.90;;;;;;4922755;28;23213;-72
2022/12/20 05:00:51;;;;;;;23.95;13.73;;;1.80;99.90;;;;;;4920526;28;20039;-72
2022/12/20 05:03:21;;;;;;;23.77;14.50;;;1.80;99.90;;;;;;4917349;28;20524;-71
2022/12/20 05:05:46;;;;;;;24.80;14.57;;;1.90;99.90;;;;;;4914928;28;20618;-71
2022/12/20 05:08:12;;;;;;;23.52;14.48;;;1.90;99.90;;;;;;4924901;28;20874;-71
2022/12/20 05:10:38;;;;;;;27.27;15.38;;;1.90;99.90;;;;;;4914778;28;20042;-72
2022/12/20 05:13:04;;;;;;;25.77;15.40;;;1.70;99.90;;;;;;4922852;28;20035;-72
2022/12/20 05:15:29;;;;;;;24.60;15.05;;;1.70;99.90;;;;;;4924342;28;20063;-72
2022/12/20 05:17:58;;;;;;;27.15;15.77;;;1.70;99.90;;;;;;4915318;28;20102;-72
2022/12/20 05:20:25;;;;;;;26.95;15.10;;;1.70;99.90;;;;;;4920410;28;20139;-71
2022/12/20 05:28:23;;;;;;;24.85;14.30;;;1.80;99.90;;;;;;4923137;28;20528;-71
2022/12/20 05:30:48;;;;;;;27.20;15.05;;;1.70;99.90;;;;;;4919422;28;20044;-71
2022/12/20 05:33:14;;;;;;;24.40;13.85;;;1.60;99.90;;;;;;4919703;28;20039;-71
2022/12/20 05:35:40;;;;;;;26.15;15.10;;;1.60;99.90;;;;;;4929236;28;20125;-71
2022/12/20 05:38:06;;;;;;;24.85;15.07;;;1.70;99.90;;;;;;4920143;28;20075;-71
2022/12/20 05:40:31;;;;;;;26.70;14.45;;;1.60;99.90;;;;;;4924020;28;20515;-71
2022/12/20 05:42:57;;;;;;;27.70;13.77;;;1.50;99.90;;;;;;4926320;28;20074;-70
2022/12/20 05:45:23;;;;;;;27.73;15.27;;;1.40;99.90;;;;;;4907867;28;22299;-69
2022/12/20 05:47:48;;;;;;;26.65;16.00;;;1.30;99.90;;;;;;4923968;28;20048;-71
2022/12/20 05:50:16;;;;;;;28.42;16.92;;;1.40;99.90;;;;;;4925399;28;20043;-70
2022/12/20 05:52:41;;;;;;;26.25;15.73;;;1.50;99.90;;;;;;4925139;28;20587;-71
2022/12/20 05:55:07;;;;;;;27.85;17.15;;;1.50;99.90;;;;;;4921380;28;20066;-70
2022/12/20 05:57:33;;;;;;;28.38;16.15;;;1.50;99.90;;;;;;4922172;28;20047;-70
2022/12/20 05:59:59;;;;;;;25.83;15.30;;;1.50;99.90;;;;;;4922591;28;20103;-70
2022/12/20 06:02:25;;;;;;;27.02;15.68;;;1.70;99.90;;;;;;4911668;28;20285;-70
2022/12/20 06:04:50;;;;;;;27.90;15.82;;;1.70;99.90;;;;;;4919335;28;20560;-70
2022/12/20 06:07:16;;;;;;;25.05;14.10;;;1.60;99.90;;;;;;4914753;28;20182;-69
2022/12/20 06:09:41;;;;;;;26.35;15.77;;;1.60;99.90;;;;;;4916634;28;20054;-69
2022/12/20 06:12:07;;;;;;;26.23;14.90;;;1.70;99.90;;;;;;4912040;28;20631;-70
2022/12/20 06:14:33;;;;;;;25.20;15.70;;;1.60;99.90;;;;;;4918568;28;20142;-70
2022/12/20 06:16:58;;;;;;;26.08;15.48;;;1.70;99.90;;;;;;4919905;28;20036;-69
2022/12/20 06:19:24;;;;;;;27.48;16.35;;;1.60;99.90;;;;;;4913031;28;20040;-69
2022/12/20 06:21:50;;;;;;;30.17;15.60;;;1.60;99.90;;;;;;4899311;28;20059;-71
2022/12/20 06:24:15;;;;;;;26.30;15.77;;;1.60;99.90;;;;;;4914768;28;20146;-70
2022/12/20 06:26:41;;;;;;;26.88;15.35;;;1.50;99.90;;;;;;4917231;28;20050;-70
2022/12/20 06:29:09;;;;;;;27.13;16.98;;;1.50;99.90;;;;;;4919582;28;20036;-71
2022/12/20 06:31:34;;;;;;;27.63;16.45;;;1.40;99.90;;;;;;4907577;28;20038;-71
2022/12/20 06:34:00;;;;;;;29.55;16.33;;;1.40;99.90;;;;;;4916876;28;20711;-70
2022/12/20 06:36:26;;;;;;;34.90;17.13;;;1.50;99.90;;;;;;4923038;28;20054;-66
2022/12/20 06:38:51;;;;;;;25.13;15.10;;;1.40;99.90;;;;;;4924116;28;20817;-71
2022/12/20 06:41:17;;;;;;;26.77;15.25;;;1.50;99.90;;;;;;4924565;28;20405;-72
2022/12/20 06:43:43;;;;;;;25.70;15.20;;;1.40;99.90;;;;;;4924811;28;20056;-72
2022/12/20 06:46:09;;;;;;;33.00;20.45;;;1.40;99.90;;;;;;4925725;28;20115;-72
2022/12/20 06:48:35;;;;;;;26.17;15.30;;;1.30;99.90;;;;;;4932336;28;20050;-70
2022/12/20 06:51:01;;;;;;;29.52;17.02;;;1.20;99.90;;;;;;4925108;28;20035;-69
2022/12/20 06:53:26;;;;;;;28.30;16.02;;;1.10;99.90;;;;;;4929318;28;20516;-69
2022/12/20 06:55:52;;;;;;;26.30;15.30;;;1.00;99.90;;;;;;4928270;28;20047;-71
2022/12/20 06:58:18;;;;;;;27.55;16.05;;;1.10;99.90;;;;;;4932630;28;20039;-70
2022/12/20 07:00:44;;;;;;;26.08;15.73;;;1.10;99.90;;;;;;4934740;28;20555;-70
2022/12/20 07:03:10;;;;;;;27.77;15.52;;;1.00;99.90;;;;;;4930456;28;20043;-70
2022/12/20 07:05:35;;;;;;;27.83;16.13;;;1.00;99.90;;;;;;4929541;28;20031;-70
2022/12/20 07:08:03;;;;;;;28.27;15.32;;;1.00;99.90;;;;;;4928482;28;20091;-70
2022/12/20 07:10:29;;;;;;;24.48;14.52;;;1.20;99.90;;;;;;4935191;28;20046;-70
2022/12/20 07:12:55;;;;;;;31.20;19.48;;;1.30;99.90;;;;;;4935123;28;20039;-71
2022/12/20 07:15:21;;;;;;;28.02;16.70;;;1.40;99.90;;;;;;4920863;28;20035;-70
2022/12/20 07:17:46;;;;;;;26.13;16.30;;;1.50;99.90;;;;;;4927988;28;20125;-70
2022/12/20 07:20:13;;;;;;;25.35;16.10;;;1.50;99.90;;;;;;4926479;28;20051;-70
2022/12/20 07:22:38;;;;;;;30.58;17.83;;;1.50;99.90;;;;;;4926670;28;20032;-69
2022/12/20 07:25:04;;;;;;;27.55;18.67;;;1.50;99.90;;;;;;4927293;28;20421;-69
2022/12/20 07:27:30;;;;;;;28.90;17.08;;;1.50;99.90;;;;;;4923836;28;20039;-70
2022/12/20 07:29:55;;;;;;;26.98;17.60;;;1.60;99.90;;;;;;4936997;28;20061;-70
2022/12/20 07:32:21;;;;;;;34.47;20.05;;;1.60;99.90;;;;;;4919199;28;20043;-70
2022/12/20 07:34:46;;;;;;;29.08;16.13;;;1.70;99.90;;;;;;4935099;28;20043;-70
2022/12/20 07:37:12;;;;;;;26.35;17.15;;;1.60;99.90;;;;;;4929926;28;20065;-70
2022/12/20 07:39:38;;;;;;;27.30;16.80;;;1.60;99.90;;;;;;4933911;28;20046;-70
2022/12/20 07:42:04;;;;;;;25.92;16.20;;;1.60;99.90;;;;;;4938028;28;20146;-69
2022/12/20 07:44:29;;;;;;;28.33;15.70;;;1.60;99.90;;;;;;4931525;28;20031;-68
2022/12/20 07:46:55;;;;;;;24.83;15.68;;;1.70;99.90;;;;;;4932420;28;20508;-71
2022/12/20 07:49:21;;;;;;;25.92;16.00;;;1.60;99.90;;;;;;4936609;28;20086;-68
2022/12/20 07:51:50;;;;;;;25.42;15.10;;;1.70;99.90;;;;;;4927563;28;20480;-68
2022/12/20 07:54:23;;;;;;;26.00;14.82;;;1.70;99.90;;;;;;4932646;28;20040;-68
2022/12/20 07:56:53;;;;;;;21.38;14.05;;;1.70;99.90;;;;;;4930909;28;20119;-69
2022/12/20 07:59:28;;;;;;;23.20;14.70;;;1.70;99.90;;;;;;4927763;28;20039;-69
2022/12/20 08:01:55;;;;;;;21.63;14.23;;;1.70;99.90;;;;;;4927823;28;20051;-70
2022/12/20 08:04:25;;;;;;;27.63;16.65;;;1.80;99.90;;;;;;4930947;28;20039;-70
2022/12/20 08:06:55;;;;;;;25.48;15.00;;;1.80;99.90;;;;;;4930813;28;20310;-70
2022/12/20 08:09:23;;;;;;;25.25;14.98;;;1.80;99.90;;;;;;4935817;28;20027;-69
2022/12/20 08:11:50;;;;;;;23.23;14.23;;;1.90;99.90;;;;;;4931796;28;20046;-70
2022/12/20 08:14:17;;;;;;;21.80;14.30;;;2.00;99.90;;;;;;4933787;28;20039;-70
2022/12/20 08:16:43;;;;;;;25.38;15.52;;;2.00;99.90;;;;;;4936299;28;20034;-70
2022/12/20 08:19:09;;;;;;;22.48;14.48;;;2.00;99.90;;;;;;4936898;28;20365;-70
2022/12/20 08:21:35;;;;;;;23.90;14.00;;;2.10;99.90;;;;;;4929770;28;20078;-69
2022/12/20 08:24:01;;;;;;;27.35;16.80;;;2.00;99.90;;;;;;4926217;28;21366;-70
2022/12/20 08:26:26;;;;;;;26.05;16.60;;;2.00;99.90;;;;;;4937460;28;20471;-70
2022/12/20 08:28:53;;;;;;;23.15;14.98;;;2.00;99.90;;;;;;4930840;28;20678;-70
2022/12/20 08:31:19;;;;;;;25.73;15.48;;;2.00;99.90;;;;;;4931667;28;20027;-69
2022/12/20 08:33:44;;;;;;;27.30;15.52;;;2.10;99.90;;;;;;4927094;28;20055;-69
2022/12/20 08:36:12;;;;;;;33.85;19.08;;;2.20;99.90;;;;;;4937230;28;20034;-71
2022/12/20 08:38:38;;;;;;;66.78;38.15;;;2.10;99.90;;;;;;4929338;28;20052;-71
2022/12/20 08:41:09;;;;;;;32.85;19.17;;;2.10;99.90;;;;;;4926301;28;20054;-72
2022/12/20 08:43:36;;;;;;;20.60;12.55;;;2.20;99.90;;;;;;4924810;28;20035;-69
2022/12/20 08:46:02;;;;;;;21.20;13.60;;;2.20;99.90;;;;;;4917981;28;20106;-70
2022/12/20 08:48:28;;;;;;;25.20;14.38;;;2.00;99.90;;;;;;4925226;28;20047;-71
2022/12/20 08:50:59;;;;;;;25.33;15.23;;;2.00;99.90;;;;;;4922348;28;20596;-71
2022/12/20 08:53:26;;;;;;;20.50;13.60;;;2.10;99.90;;;;;;4925376;28;20043;-71
2022/12/20 08:55:52;;;;;;;23.33;14.15;;;2.20;99.90;;;;;;4928096;28;20219;-71
2022/12/20 08:58:20;;;;;;;20.58;13.20;;;2.20;99.90;;;;;;4919854;28;20198;-71
2022/12/20 09:00:46;;;;;;;23.17;15.00;;;2.10;99.90;;;;;;4911345;28;21867;-71
2022/12/20 09:03:12;;;;;;;25.67;16.27;;;2.10;99.90;;;;;;4926113;28;20039;-70
2022/12/20 09:05:48;;;;;;;20.70;13.10;;;2.00;99.90;;;;;;4932119;28;20079;-71
2022/12/20 09:08:15;;;;;;;22.80;14.95;;;2.10;99.90;;;;;;4932190;28;20053;-71
2022/12/20 09:10:41;;;;;;;23.27;14.35;;;2.30;99.90;;;;;;4921082;28;20040;-71
2022/12/20 09:13:06;;;;;;;21.00;14.30;;;2.40;99.90;;;;;;4921533;28;20055;-71
2022/12/20 09:15:34;;;;;;;20.35;13.55;;;2.40;99.90;;;;;;4934892;28;20040;-71
2022/12/20 09:18:00;;;;;;;24.40;14.80;;;2.30;99.90;;;;;;4931462;28;20046;-71
2022/12/20 09:20:27;;;;;;;24.25;14.27;;;2.50;99.90;;;;;;4939452;28;20043;-70
2022/12/20 09:22:52;;;;;;;24.13;13.38;;;2.60;99.90;;;;;;4930737;28;20685;-71
2022/12/20 09:25:18;;;;;;;22.67;14.20;;;2.60;99.90;;;;;;4926374;28;20493;-71
2022/12/20 09:27:44;;;;;;;25.38;14.63;;;2.60;99.90;;;;;;4912464;28;20071;-70
2022/12/20 09:30:10;;;;;;;20.33;13.40;;;2.50;99.90;;;;;;4922567;28;20438;-70
2022/12/20 09:32:36;;;;;;;49.28;33.25;;;2.40;99.90;;;;;;4934988;28;20630;-70
2022/12/20 09:35:02;;;;;;;41.80;29.17;;;2.40;99.90;;;;;;4924472;28;20043;-71
2022/12/20 09:37:32;;;;;;;29.88;19.67;;;2.30;99.90;;;;;;4914584;28;20047;-70
2022/12/20 09:39:58;;;;;;;23.45;14.57;;;2.30;99.90;;;;;;4913696;29;20504;-70
2022/12/20 09:42:26;;;;;;;19.25;13.73;;;2.20;99.90;;;;;;4936038;28;20054;-70
2022/12/20 09:44:59;;;;;;;19.73;13.13;;;2.30;99.90;;;;;;4932558;28;20053;-70
2022/12/20 09:47:26;;;;;;;23.30;13.48;;;2.30;99.90;;;;;;4919772;28;20058;-71
2022/12/20 09:49:55;;;;;;;25.02;14.77;;;2.30;99.90;;;;;;4924295;28;20050;-71
2022/12/20 09:52:24;;;;;;;25.70;15.43;;;2.30;99.90;;;;;;4929541;28;20118;-71
2022/12/20 09:55:14;;;;;;;27.45;16.08;;;2.30;99.90;;;;;;4927266;28;20052;-71
2022/12/20 09:58:22;;;;;;;25.38;15.35;;;2.20;99.90;;;;;;4925580;28;20070;-71
2022/12/20 10:00:49;;;;;;;23.55;15.32;;;2.30;99.90;;;;;;4894598;29;20155;-71
2022/12/20 10:03:26;;;;;;;23.05;14.85;;;2.20;99.90;;;;;;4912526;28;20433;-72
2022/12/20 10:05:55;;;;;;;27.05;16.27;;;2.20;99.90;;;;;;4933411;28;20035;-71
2022/12/20 10:08:24;;;;;;;24.00;15.52;;;2.30;99.90;;;;;;4912280;28;20039;-72
2022/12/20 10:11:12;;;;;;;24.85;15.80;;;2.30;99.90;;;;;;4917063;28;24419;-71
2022/12/20 10:14:07;;;;;;;25.08;16.40;;;2.40;99.90;;;;;;4928885;28;20051;-72
2022/12/20 10:16:45;;;;;;;25.10;15.88;;;2.50;99.90;;;;;;4918146;28;20035;-72
2022/12/20 10:19:28;;;;;;;25.85;15.00;;;2.70;99.90;;;;;;4913836;28;20047;-71
2022/12/20 10:22:21;;;;;;;22.95;15.32;;;2.80;99.90;;;;;;4924009;28;20122;-71
2022/12/20 10:25:18;;;;;;;26.15;15.30;;;2.90;99.90;;;;;;4924656;28;20055;-71
2022/12/20 10:27:46;;;;;;;26.15;16.17;;;3.00;99.90;;;;;;4925751;28;20054;-71
2022/12/20 10:30:17;;;;;;;24.23;15.98;;;3.00;99.90;;;;;;4924020;28;20044;-69
2022/12/20 10:32:51;;;;;;;25.65;15.60;;;3.00;99.90;;;;;;4934277;28;20059;-70
2022/12/20 10:35:27;;;;;;;29.38;16.83;;;2.90;99.90;;;;;;4930147;28;20061;-72
2022/12/20 10:38:06;;;;;;;24.92;16.35;;;2.80;99.90;;;;;;4930463;28;20043;-70
2022/12/20 10:40:34;;;;;;;24.02;15.68;;;2.90;99.90;;;;;;4919841;28;20051;-71
2022/12/20 10:43:02;;;;;;;29.73;15.15;;;2.90;99.90;;;;;;4934549;28;20040;-71
2022/12/20 10:45:34;;;;;;;28.38;16.70;;;3.00;99.90;;;;;;4928173;28;20059;-71
2022/12/20 10:48:03;;;;;;;27.00;15.75;;;3.00;99.90;;;;;;4922562;29;20047;-68
2022/12/20 10:50:29;;;;;;;31.42;18.27;;;3.00;99.90;;;;;;4928521;28;20058;-72
2022/12/20 10:53:23;;;;;;;27.10;16.85;;;3.00;99.90;;;;;;4921565;28;20151;-71
2022/12/20 10:55:51;;;;;;;26.25;16.05;;;3.10;99.90;;;;;;4927886;28;20050;-72
2022/12/20 10:58:35;;;;;;;37.50;21.23;;;3.10;99.90;;;;;;4932516;28;20429;-72
2022/12/20 11:01:04;;;;;;;29.95;20.92;;;3.20;99.90;;;;;;4929426;28;20046;-72
2022/12/20 11:03:29;;;;;;;28.30;17.17;;;3.20;99.90;;;;;;4932024;28;20167;-72
2022/12/20 11:06:04;;;;;;;34.92;20.42;;;3.20;99.90;;;;;;4949006;28;20039;-72
2022/12/20 11:08:31;;;;;;;37.22;21.58;;;3.30;99.90;;;;;;4932963;28;20110;-72
2022/12/20 11:11:13;;;;;;;25.30;17.20;;;3.30;99.90;;;;;;4928317;28;20031;-74
2022/12/20 11:13:39;;;;;;;22.23;15.10;;;3.30;99.90;;;;;;4920448;28;20138;-72
2022/12/20 11:16:05;;;;;;;25.75;16.13;;;3.30;99.90;;;;;;4914487;28;20059;-71
2022/12/20 11:18:51;;;;;;;24.48;15.77;;;3.40;99.90;;;;;;4903300;28;20050;-74
2022/12/20 11:21:25;;;;;;;26.05;16.42;;;3.60;99.90;;;;;;4921879;28;20093;-72
2022/12/20 11:24:34;;;;;;;30.35;19.17;;;3.60;99.90;;;;;;4930979;28;20043;-73
2022/12/20 11:27:29;;;;;;;27.27;16.35;;;3.50;99.90;;;;;;4926200;28;20070;-73
2022/12/20 11:30:00;;;;;;;26.10;15.93;;;3.50;99.90;;;;;;4930377;28;20066;-74
2022/12/20 11:32:45;;;;;;;25.83;16.10;;;3.60;99.90;;;;;;4927759;28;20070;-73
2022/12/20 11:35:17;;;;;;;27.98;17.20;;;3.60;99.90;;;;;;4928813;28;20488;-74
2022/12/20 11:38:01;;;;;;;30.33;16.95;;;3.60;99.90;;;;;;4930295;28;20054;-74
2022/12/20 11:40:33;;;;;;;25.58;16.40;;;3.50;99.90;;;;;;4931577;28;20038;-74
2022/12/20 11:43:19;;;;;;;26.10;16.95;;;3.40;99.90;;;;;;4908960;28;20100;-74
2022/12/20 11:46:06;;;;;;;28.65;17.48;;;3.40;99.90;;;;;;4936516;28;20054;-73
2022/12/20 11:48:37;;;;;;;26.85;17.92;;;3.40;99.90;;;;;;4929795;28;20563;-73
2022/12/20 11:51:45;;;;;;;24.47;15.30;;;3.50;99.90;;;;;;4928365;28;20070;-72
2022/12/20 11:54:29;;;;;;;23.33;15.27;;;3.50;99.90;;;;;;4901727;29;20372;-73
2022/12/20 11:57:04;;;;;;;24.10;14.98;;;3.50;99.90;;;;;;4935022;28;20035;-73
2022/12/20 11:59:54;;;;;;;26.25;17.25;;;3.60;99.90;;;;;;4917464;28;20694;-74
2022/12/20 12:03:02;;;;;;;26.20;17.63;;;3.60;99.90;;;;;;4931937;28;20050;-74
2022/12/20 12:05:33;;;;;;;29.80;17.65;;;3.60;99.90;;;;;;4915895;28;21561;-74
2022/12/20 12:08:03;;;;;;;28.65;17.92;;;3.50;99.90;;;;;;4925012;28;20039;-74
2022/12/20 12:10:39;;;;;;;30.80;18.80;;;3.50;99.90;;;;;;4927023;28;20061;-74
2022/12/20 12:13:20;;;;;;;27.73;17.23;;;3.60;99.90;;;;;;4926943;28;20086;-74
2022/12/20 12:15:54;;;;;;;35.63;18.40;;;3.50;99.90;;;;;;4911376;29;20050;-73
2022/12/20 12:18:26;;;;;;;34.38;21.02;;;3.50;99.90;;;;;;4923854;28;20666;-74
2022/12/20 12:21:04;;;;;;;30.52;19.65;;;3.50;99.90;;;;;;4920351;28;20031;-74
2022/12/20 12:23:48;;;;;;;24.65;15.05;;;3.50;99.90;;;;;;4932660;28;20030;-74
2022/12/20 12:26:19;;;;;;;22.63;15.27;;;3.40;99.90;;;;;;4916531;28;20067;-74
2022/12/20 12:28:54;;;;;;;31.80;18.50;;;3.40;99.90;;;;;;4929670;28;22255;-73
2022/12/20 12:31:38;;;;;;;24.33;15.60;;;3.50;99.90;;;;;;4930786;28;20285;-74
2022/12/20 12:34:04;;;;;;;23.73;15.70;;;3.60;99.90;;;;;;4935638;28;21098;-73
2022/12/20 12:36:54;;;;;;;27.08;17.08;;;3.60;99.90;;;;;;4935556;28;20039;-74
2022/12/20 12:39:41;;;;;;;33.35;18.35;;;3.50;99.90;;;;;;4926586;28;20047;-74
2022/12/20 12:42:18;;;;;;;26.33;16.15;;;3.60;99.90;;;;;;4930755;28;20079;-74
2022/12/20 12:45:13;;;;;;;32.42;19.92;;;3.60;99.90;;;;;;4927855;28;20134;-74
2022/12/20 12:48:00;;;;;;;27.65;17.02;;;3.60;99.90;;;;;;4924163;28;20038;-74
2022/12/20 12:50:36;;;;;;;30.17;16.80;;;3.60;99.90;;;;;;4933689;28;20618;-73
2022/12/20 12:53:19;;;;;;;23.52;14.05;;;3.60;99.90;;;;;;4917750;28;20042;-74
2022/12/20 12:55:50;;;;;;;28.05;17.13;;;3.60;99.90;;;;;;4930902;28;20043;-74
2022/12/20 12:58:22;;;;;;;30.67;17.92;;;3.60;99.90;;;;;;4941366;28;20528;-74
2022/12/20 13:00:53;;;;;;;25.40;15.77;;;3.60;99.90;;;;;;4936078;28;20043;-73